Airfield :
LOGIN :

Register | Disclaimer

   EN    FR    IT 

 










Legend :    VFR   Marginal VFR   IFR   Intensive IFR   Very Intensive IFR
Visi :
Ceiling :
>= 8 km
>= 3000ft
5 to 8 km
1000 to 3000 ft
1500m to 5 km
500 to 1000 ft
800 to 1500m
200 to 500 ft
< 800m
< 200 ft
Symbols :   Thunderstorms  Fog  Heavy snow  Heavy precipitations  Wind > 20 kt
SIGMETs :     Misc.  Thunderstorms  Icing  Turbulence  Mountain Waves  Volcanic Ashes







- Airport Elevation : 404 ft
- IATA code : WRO


EPWR - Wroclaw

CURRENT METAR :
  • 211130Z 32011KT 9999 -SHRA SCT034CB 16/12 Q1021

EXPIRED METARs :
  • 211100Z 29016G27KT 250V320 9999 SCT034TCU 19/10 Q1020
  • 211030Z 28014KT 260V320 9999 FEW030TCU SCT035 18/11 Q1021
  • 211000Z 28014KT 9999 FEW029TCU 17/11 Q1021
  • 210930Z 29015KT 9999 FEW021TCU SCT025 BKN034 17/10 Q1021
  • 210900Z 28013KT 250V320 9999 BKN023 16/11 Q1021

TAF TAF EPWR
Valid from the 21 at 12:00 until the 22 at 12:00 UTC


211130Z 2112/2212 28012KT 9999 SCT045
TEMPO 2112/2119 -SHRA SCT035CB
PROB30
TEMPO 2112/2116 30016G28KT TSRA
PROB40
TEMPO 2207/2212 20018G28KT SCT040TCU
No reported NOTAMs for that airfield.



MET'MAP, your aeronautical weather chart ! - Copyright ORBIFLY December 2007 - Disclaimer

ORBIFLY MET'MAP TEAM :

Programming & Development : Alexandra Zaïnal
Concept & Development : Baudouin d'Aumeries
Co-Development & Prog : Marc-Olivier Méhu
Technical & hardware support : Manuel Goepfert

Contact : metmap@orbifly.com




SOURCES & CREDITS :

   NOAA